sensor_id;sensor_type;location;lat;lon;timestamp;P1;durP1;ratioP1;P2;durP2;ratioP2
41305;SDS011;27051;50.376;19.152;2022-11-03T00:01:08;45.95;;;24.50;;
41305;SDS011;27051;50.376;19.152;2022-11-03T00:03:35;41.15;;;22.93;;
41305;SDS011;27051;50.376;19.152;2022-11-03T00:06:02;48.38;;;23.60;;
41305;SDS011;27051;50.376;19.152;2022-11-03T00:08:29;45.33;;;23.27;;
41305;SDS011;27051;50.376;19.152;2022-11-03T00:11:00;47.50;;;24.75;;
41305;SDS011;27051;50.376;19.152;2022-11-03T00:13:37;46.33;;;23.80;;
41305;SDS011;27051;50.376;19.152;2022-11-03T00:16:08;47.55;;;24.07;;
41305;SDS011;27051;50.376;19.152;2022-11-03T00:18:38;46.50;;;23.10;;
41305;SDS011;27051;50.376;19.152;2022-11-03T00:21:06;44.88;;;22.90;;
41305;SDS011;27051;50.376;19.152;2022-11-03T00:23:36;45.83;;;21.48;;
41305;SDS011;27051;50.376;19.152;2022-11-03T00:26:12;37.88;;;20.12;;
41305;SDS011;27051;50.376;19.152;2022-11-03T00:28:48;41.00;;;20.08;;
41305;SDS011;27051;50.376;19.152;2022-11-03T00:31:19;37.10;;;19.12;;
41305;SDS011;27051;50.376;19.152;2022-11-03T00:33:54;36.88;;;18.52;;
41305;SDS011;27051;50.376;19.152;2022-11-03T00:36:23;38.08;;;18.02;;
41305;SDS011;27051;50.376;19.152;2022-11-03T00:38:52;36.93;;;17.87;;
41305;SDS011;27051;50.376;19.152;2022-11-03T00:41:20;34.45;;;18.25;;
41305;SDS011;27051;50.376;19.152;2022-11-03T00:43:49;33.60;;;15.43;;
41305;SDS011;27051;50.376;19.152;2022-11-03T00:46:20;35.35;;;15.18;;
41305;SDS011;27051;50.376;19.152;2022-11-03T00:53:50;36.30;;;17.52;;
41305;SDS011;27051;50.376;19.152;2022-11-03T00:56:25;34.88;;;17.07;;
41305;SDS011;27051;50.376;19.152;2022-11-03T00:58:55;30.85;;;16.48;;
41305;SDS011;27051;50.376;19.152;2022-11-03T01:01:25;32.53;;;16.65;;
41305;SDS011;27051;50.376;19.152;2022-11-03T01:03:55;35.35;;;16.62;;
41305;SDS011;27051;50.376;19.152;2022-11-03T01:06:23;32.17;;;15.55;;
41305;SDS011;27051;50.376;19.152;2022-11-03T01:08:49;35.35;;;16.85;;
41305;SDS011;27051;50.376;19.152;2022-11-03T01:11:17;37.55;;;18.17;;
41305;SDS011;27051;50.376;19.152;2022-11-03T01:13:47;45.40;;;20.23;;
41305;SDS011;27051;50.376;19.152;2022-11-03T01:16:13;40.33;;;19.45;;
41305;SDS011;27051;50.376;19.152;2022-11-03T01:18:40;36.10;;;17.00;;
41305;SDS011;27051;50.376;19.152;2022-11-03T01:21:07;34.35;;;16.62;;
41305;SDS011;27051;50.376;19.152;2022-11-03T01:23:34;33.55;;;16.57;;
41305;SDS011;27051;50.376;19.152;2022-11-03T01:26:04;32.85;;;14.75;;
41305;SDS011;27051;50.376;19.152;2022-11-03T01:28:34;33.67;;;14.93;;
41305;SDS011;27051;50.376;19.152;2022-11-03T01:31:03;33.28;;;15.58;;
41305;SDS011;27051;50.376;19.152;2022-11-03T01:33:32;30.88;;;14.20;;
41305;SDS011;27051;50.376;19.152;2022-11-03T01:35:59;37.38;;;14.98;;
41305;SDS011;27051;50.376;19.152;2022-11-03T01:38:30;28.32;;;14.23;;
41305;SDS011;27051;50.376;19.152;2022-11-03T01:41:00;28.05;;;13.70;;
41305;SDS011;27051;50.376;19.152;2022-11-03T01:43:29;29.42;;;13.72;;
41305;SDS011;27051;50.376;19.152;2022-11-03T01:46:00;27.95;;;13.30;;
41305;SDS011;27051;50.376;19.152;2022-11-03T01:48:42;28.57;;;12.20;;
41305;SDS011;27051;50.376;19.152;2022-11-03T01:51:16;31.42;;;13.70;;
41305;SDS011;27051;50.376;19.152;2022-11-03T01:53:46;28.38;;;13.98;;
41305;SDS011;27051;50.376;19.152;2022-11-03T01:56:14;26.95;;;13.28;;
41305;SDS011;27051;50.376;19.152;2022-11-03T01:58:42;33.80;;;15.05;;
41305;SDS011;27051;50.376;19.152;2022-11-03T02:01:12;26.63;;;14.93;;
41305;SDS011;27051;50.376;19.152;2022-11-03T02:03:49;26.87;;;14.03;;
41305;SDS011;27051;50.376;19.152;2022-11-03T02:06:21;28.80;;;16.27;;
41305;SDS011;27051;50.376;19.152;2022-11-03T02:08:52;28.55;;;16.00;;
41305;SDS011;27051;50.376;19.152;2022-11-03T02:11:31;30.43;;;17.15;;
41305;SDS011;27051;50.376;19.152;2022-11-03T02:14:00;30.77;;;15.60;;
41305;SDS011;27051;50.376;19.152;2022-11-03T02:16:27;31.30;;;15.95;;
41305;SDS011;27051;50.376;19.152;2022-11-03T02:18:57;31.95;;;16.37;;
41305;SDS011;27051;50.376;19.152;2022-11-03T02:21:35;49.48;;;20.25;;
41305;SDS011;27051;50.376;19.152;2022-11-03T02:24:26;33.55;;;16.42;;
41305;SDS011;27051;50.376;19.152;2022-11-03T02:27:18;35.92;;;15.90;;
41305;SDS011;27051;50.376;19.152;2022-11-03T02:29:46;43.68;;;19.75;;
41305;SDS011;27051;50.376;19.152;2022-11-03T02:32:23;37.10;;;18.82;;
41305;SDS011;27051;50.376;19.152;2022-11-03T02:34:59;36.13;;;16.95;;
41305;SDS011;27051;50.376;19.152;2022-11-03T02:37:55;33.10;;;14.33;;
41305;SDS011;27051;50.376;19.152;2022-11-03T02:40:29;30.57;;;13.65;;
41305;SDS011;27051;50.376;19.152;2022-11-03T02:43:00;31.45;;;12.88;;
41305;SDS011;27051;50.376;19.152;2022-11-03T02:45:29;27.80;;;13.98;;
41305;SDS011;27051;50.376;19.152;2022-11-03T02:47:57;33.15;;;14.55;;
41305;SDS011;27051;50.376;19.152;2022-11-03T02:50:30;35.50;;;15.13;;
41305;SDS011;27051;50.376;19.152;2022-11-03T02:52:59;33.45;;;16.07;;
41305;SDS011;27051;50.376;19.152;2022-11-03T02:55:31;35.35;;;16.35;;
41305;SDS011;27051;50.376;19.152;2022-11-03T03:01:47;29.10;;;13.58;;
41305;SDS011;27051;50.376;19.152;2022-11-03T03:04:05;31.05;;;15.68;;
41305;SDS011;27051;50.376;19.152;2022-11-03T03:06:52;31.20;;;15.10;;
41305;SDS011;27051;50.376;19.152;2022-11-03T03:09:24;29.67;;;14.95;;
41305;SDS011;27051;50.376;19.152;2022-11-03T03:11:54;35.48;;;14.28;;
41305;SDS011;27051;50.376;19.152;2022-11-03T03:14:29;29.92;;;13.45;;
41305;SDS011;27051;50.376;19.152;2022-11-03T03:17:00;27.82;;;13.22;;
41305;SDS011;27051;50.376;19.152;2022-11-03T03:25:14;32.53;;;17.45;;
41305;SDS011;27051;50.376;19.152;2022-11-03T03:28:16;37.90;;;20.20;;
41305;SDS011;27051;50.376;19.152;2022-11-03T03:30:41;33.70;;;19.57;;
41305;SDS011;27051;50.376;19.152;2022-11-03T03:33:10;35.05;;;17.75;;
41305;SDS011;27051;50.376;19.152;2022-11-03T03:35:39;30.82;;;17.90;;
41305;SDS011;27051;50.376;19.152;2022-11-03T03:38:12;34.53;;;18.30;;
41305;SDS011;27051;50.376;19.152;2022-11-03T03:40:45;35.83;;;19.37;;
41305;SDS011;27051;50.376;19.152;2022-11-03T03:43:16;34.55;;;18.10;;
41305;SDS011;27051;50.376;19.152;2022-11-03T03:45:45;30.80;;;16.80;;
41305;SDS011;27051;50.376;19.152;2022-11-03T03:48:14;31.77;;;16.05;;
41305;SDS011;27051;50.376;19.152;2022-11-03T03:50:41;33.08;;;17.50;;
41305;SDS011;27051;50.376;19.152;2022-11-03T03:53:10;29.72;;;16.93;;
41305;SDS011;27051;50.376;19.152;2022-11-03T03:55:38;30.17;;;16.80;;
41305;SDS011;27051;50.376;19.152;2022-11-03T03:58:13;34.80;;;19.70;;
41305;SDS011;27051;50.376;19.152;2022-11-03T04:00:39;42.50;;;22.87;;
41305;SDS011;27051;50.376;19.152;2022-11-03T04:03:12;62.23;;;33.28;;
41305;SDS011;27051;50.376;19.152;2022-11-03T04:05:42;59.38;;;28.75;;
41305;SDS011;27051;50.376;19.152;2022-11-03T04:08:13;51.00;;;24.63;;
41305;SDS011;27051;50.376;19.152;2022-11-03T04:10:41;45.60;;;23.73;;
41305;SDS011;27051;50.376;19.152;2022-11-03T04:13:08;46.08;;;24.92;;
41305;SDS011;27051;50.376;19.152;2022-11-03T04:15:35;43.70;;;23.92;;
41305;SDS011;27051;50.376;19.152;2022-11-03T04:18:02;50.35;;;26.75;;
41305;SDS011;27051;50.376;19.152;2022-11-03T04:20:29;43.42;;;24.02;;
41305;SDS011;27051;50.376;19.152;2022-11-03T04:22:55;43.20;;;23.38;;
41305;SDS011;27051;50.376;19.152;2022-11-03T04:25:22;43.78;;;22.85;;
41305;SDS011;27051;50.376;19.152;2022-11-03T04:27:48;39.55;;;20.97;;
41305;SDS011;27051;50.376;19.152;2022-11-03T04:30:16;41.30;;;21.35;;
41305;SDS011;27051;50.376;19.152;2022-11-03T04:32:57;40.63;;;21.12;;
41305;SDS011;27051;50.376;19.152;2022-11-03T04:35:24;51.90;;;26.82;;
41305;SDS011;27051;50.376;19.152;2022-11-03T04:37:54;48.90;;;24.47;;
41305;SDS011;27051;50.376;19.152;2022-11-03T04:40:24;55.70;;;27.15;;
41305;SDS011;27051;50.376;19.152;2022-11-03T04:42:50;40.25;;;21.60;;
41305;SDS011;27051;50.376;19.152;2022-11-03T04:47:57;44.27;;;22.77;;
41305;SDS011;27051;50.376;19.152;2022-11-03T04:50:26;43.20;;;23.95;;
41305;SDS011;27051;50.376;19.152;2022-11-03T04:52:58;44.93;;;24.77;;
41305;SDS011;27051;50.376;19.152;2022-11-03T04:57:59;47.48;;;24.30;;
41305;SDS011;27051;50.376;19.152;2022-11-03T05:00:30;38.42;;;22.42;;
41305;SDS011;27051;50.376;19.152;2022-11-03T05:02:56;42.60;;;21.90;;
41305;SDS011;27051;50.376;19.152;2022-11-03T05:05:23;44.80;;;23.75;;
41305;SDS011;27051;50.376;19.152;2022-11-03T05:07:53;44.98;;;23.67;;
41305;SDS011;27051;50.376;19.152;2022-11-03T05:10:26;45.50;;;24.07;;
41305;SDS011;27051;50.376;19.152;2022-11-03T05:12:54;48.63;;;24.40;;
41305;SDS011;27051;50.376;19.152;2022-11-03T05:15:36;51.98;;;25.50;;
41305;SDS011;27051;50.376;19.152;2022-11-03T05:20:48;47.53;;;22.73;;
41305;SDS011;27051;50.376;19.152;2022-11-03T05:23:24;51.77;;;26.45;;
41305;SDS011;27051;50.376;19.152;2022-11-03T05:25:55;53.58;;;25.35;;
41305;SDS011;27051;50.376;19.152;2022-11-03T05:28:24;56.20;;;25.75;;
41305;SDS011;27051;50.376;19.152;2022-11-03T05:33:28;51.98;;;25.92;;
41305;SDS011;27051;50.376;19.152;2022-11-03T05:36:00;66.42;;;29.05;;
41305;SDS011;27051;50.376;19.152;2022-11-03T05:38:40;59.70;;;28.67;;
41305;SDS011;27051;50.376;19.152;2022-11-03T05:41:11;56.30;;;27.13;;
41305;SDS011;27051;50.376;19.152;2022-11-03T05:43:54;54.10;;;27.32;;
41305;SDS011;27051;50.376;19.152;2022-11-03T05:46:31;49.93;;;24.87;;
41305;SDS011;27051;50.376;19.152;2022-11-03T05:49:01;49.48;;;24.98;;
41305;SDS011;27051;50.376;19.152;2022-11-03T05:51:30;49.20;;;24.85;;
41305;SDS011;27051;50.376;19.152;2022-11-03T05:54:03;44.58;;;23.95;;
41305;SDS011;27051;50.376;19.152;2022-11-03T05:56:35;44.58;;;23.40;;
41305;SDS011;27051;50.376;19.152;2022-11-03T05:59:03;52.80;;;25.80;;
41305;SDS011;27051;50.376;19.152;2022-11-03T06:04:03;48.70;;;22.60;;
41305;SDS011;27051;50.376;19.152;2022-11-03T06:06:57;47.75;;;23.92;;
41305;SDS011;27051;50.376;19.152;2022-11-03T06:09:53;42.80;;;22.27;;
41305;SDS011;27051;50.376;19.152;2022-11-03T06:12:20;47.53;;;24.15;;
41305;SDS011;27051;50.376;19.152;2022-11-03T06:14:49;46.63;;;24.52;;
41305;SDS011;27051;50.376;19.152;2022-11-03T06:19:56;44.35;;;22.52;;
41305;SDS011;27051;50.376;19.152;2022-11-03T06:22:35;35.48;;;19.82;;
41305;SDS011;27051;50.376;19.152;2022-11-03T06:27:41;29.82;;;17.73;;
41305;SDS011;27051;50.376;19.152;2022-11-03T06:32:52;30.27;;;18.25;;
41305;SDS011;27051;50.376;19.152;2022-11-03T06:35:23;29.52;;;18.45;;
41305;SDS011;27051;50.376;19.152;2022-11-03T06:37:50;31.23;;;18.00;;
41305;SDS011;27051;50.376;19.152;2022-11-03T06:42:53;29.48;;;17.62;;
41305;SDS011;27051;50.376;19.152;2022-11-03T06:45:21;30.92;;;18.30;;
41305;SDS011;27051;50.376;19.152;2022-11-03T06:47:51;34.10;;;19.17;;
41305;SDS011;27051;50.376;19.152;2022-11-03T06:50:23;30.62;;;17.87;;
41305;SDS011;27051;50.376;19.152;2022-11-03T06:52:57;30.37;;;17.90;;
41305;SDS011;27051;50.376;19.152;2022-11-03T06:55:35;28.70;;;16.73;;
41305;SDS011;27051;50.376;19.152;2022-11-03T06:58:14;28.73;;;17.05;;
41305;SDS011;27051;50.376;19.152;2022-11-03T07:01:08;29.82;;;17.80;;
41305;SDS011;27051;50.376;19.152;2022-11-03T07:03:38;28.92;;;17.82;;
41305;SDS011;27051;50.376;19.152;2022-11-03T07:06:18;29.02;;;17.65;;
41305;SDS011;27051;50.376;19.152;2022-11-03T07:08:57;31.95;;;18.62;;
41305;SDS011;27051;50.376;19.152;2022-11-03T07:11:27;37.93;;;23.12;;
41305;SDS011;27051;50.376;19.152;2022-11-03T07:14:11;43.85;;;25.57;;
41305;SDS011;27051;50.376;19.152;2022-11-03T07:16:45;44.88;;;26.33;;
41305;SDS011;27051;50.376;19.152;2022-11-03T07:19:26;41.25;;;24.50;;
41305;SDS011;27051;50.376;19.152;2022-11-03T07:22:01;35.08;;;21.25;;
41305;SDS011;27051;50.376;19.152;2022-11-03T07:24:39;31.02;;;18.67;;
41305;SDS011;27051;50.376;19.152;2022-11-03T07:29:59;33.02;;;18.57;;
41305;SDS011;27051;50.376;19.152;2022-11-03T07:32:44;32.55;;;18.52;;
41305;SDS011;27051;50.376;19.152;2022-11-03T07:35:23;33.95;;;20.75;;
41305;SDS011;27051;50.376;19.152;2022-11-03T07:37:59;31.60;;;19.62;;
41305;SDS011;27051;50.376;19.152;2022-11-03T07:40:30;36.53;;;19.85;;
41305;SDS011;27051;50.376;19.152;2022-11-03T07:42:59;36.73;;;20.77;;
41305;SDS011;27051;50.376;19.152;2022-11-03T07:45:37;34.13;;;20.07;;
41305;SDS011;27051;50.376;19.152;2022-11-03T07:50:50;32.90;;;19.77;;
41305;SDS011;27051;50.376;19.152;2022-11-03T07:53:28;34.43;;;21.57;;
41305;SDS011;27051;50.376;19.152;2022-11-03T07:56:02;37.90;;;21.40;;
41305;SDS011;27051;50.376;19.152;2022-11-03T07:58:53;34.30;;;21.17;;
41305;SDS011;27051;50.376;19.152;2022-11-03T08:04:00;40.92;;;23.18;;
41305;SDS011;27051;50.376;19.152;2022-11-03T08:06:30;39.13;;;23.35;;
41305;SDS011;27051;50.376;19.152;2022-11-03T08:08:58;37.35;;;23.22;;
41305;SDS011;27051;50.376;19.152;2022-11-03T08:11:25;43.05;;;22.30;;
41305;SDS011;27051;50.376;19.152;2022-11-03T08:13:52;37.78;;;23.15;;
41305;SDS011;27051;50.376;19.152;2022-11-03T08:16:19;33.88;;;22.20;;
41305;SDS011;27051;50.376;19.152;2022-11-03T08:18:46;40.10;;;22.40;;
41305;SDS011;27051;50.376;19.152;2022-11-03T08:21:12;36.93;;;22.75;;
41305;SDS011;27051;50.376;19.152;2022-11-03T08:23:39;37.40;;;22.48;;
41305;SDS011;27051;50.376;19.152;2022-11-03T08:26:06;37.75;;;23.85;;
41305;SDS011;27051;50.376;19.152;2022-11-03T08:28:32;39.42;;;22.22;;
41305;SDS011;27051;50.376;19.152;2022-11-03T08:30:59;36.73;;;22.32;;
41305;SDS011;27051;50.376;19.152;2022-11-03T08:33:26;34.55;;;22.42;;
41305;SDS011;27051;50.376;19.152;2022-11-03T08:35:53;42.60;;;22.82;;
41305;SDS011;27051;50.376;19.152;2022-11-03T08:38:20;39.83;;;24.15;;
41305;SDS011;27051;50.376;19.152;2022-11-03T08:40:47;40.12;;;23.85;;
41305;SDS011;27051;50.376;19.152;2022-11-03T08:43:13;39.63;;;23.70;;
41305;SDS011;27051;50.376;19.152;2022-11-03T08:45:40;35.58;;;23.42;;
41305;SDS011;27051;50.376;19.152;2022-11-03T08:48:07;37.33;;;23.65;;
41305;SDS011;27051;50.376;19.152;2022-11-03T08:50:33;38.53;;;22.58;;
41305;SDS011;27051;50.376;19.152;2022-11-03T08:53:00;38.13;;;23.70;;
41305;SDS011;27051;50.376;19.152;2022-11-03T08:55:26;34.13;;;22.93;;
41305;SDS011;27051;50.376;19.152;2022-11-03T08:57:53;43.98;;;25.48;;
41305;SDS011;27051;50.376;19.152;2022-11-03T09:00:20;42.17;;;25.27;;
41305;SDS011;27051;50.376;19.152;2022-11-03T09:02:47;44.70;;;26.20;;
41305;SDS011;27051;50.376;19.152;2022-11-03T09:05:14;36.42;;;22.32;;
41305;SDS011;27051;50.376;19.152;2022-11-03T09:07:40;39.08;;;22.27;;
41305;SDS011;27051;50.376;19.152;2022-11-03T09:10:08;37.42;;;20.52;;
41305;SDS011;27051;50.376;19.152;2022-11-03T09:12:35;28.50;;;16.07;;
41305;SDS011;27051;50.376;19.152;2022-11-03T09:15:03;30.00;;;15.08;;
41305;SDS011;27051;50.376;19.152;2022-11-03T09:17:31;26.77;;;14.15;;
41305;SDS011;27051;50.376;19.152;2022-11-03T09:19:58;30.05;;;13.40;;
41305;SDS011;27051;50.376;19.152;2022-11-03T09:22:25;25.62;;;13.10;;
41305;SDS011;27051;50.376;19.152;2022-11-03T09:24:52;26.05;;;13.25;;
41305;SDS011;27051;50.376;19.152;2022-11-03T09:27:18;29.48;;;13.50;;
41305;SDS011;27051;50.376;19.152;2022-11-03T09:29:45;27.15;;;12.60;;
41305;SDS011;27051;50.376;19.152;2022-11-03T09:32:12;27.42;;;11.57;;
41305;SDS011;27051;50.376;19.152;2022-11-03T09:34:39;24.20;;;11.85;;
41305;SDS011;27051;50.376;19.152;2022-11-03T09:37:05;26.45;;;12.75;;
41305;SDS011;27051;50.376;19.152;2022-11-03T09:39:32;19.45;;;10.70;;
41305;SDS011;27051;50.376;19.152;2022-11-03T09:41:59;22.40;;;10.35;;
41305;SDS011;27051;50.376;19.152;2022-11-03T09:44:26;21.70;;;10.23;;
41305;SDS011;27051;50.376;19.152;2022-11-03T09:46:53;23.38;;;10.65;;
41305;SDS011;27051;50.376;19.152;2022-11-03T09:49:20;22.00;;;10.58;;
41305;SDS011;27051;50.376;19.152;2022-11-03T09:51:46;23.10;;;10.58;;
41305;SDS011;27051;50.376;19.152;2022-11-03T09:54:13;21.57;;;9.48;;
41305;SDS011;27051;50.376;19.152;2022-11-03T09:56:42;19.92;;;8.65;;
41305;SDS011;27051;50.376;19.152;2022-11-03T09:59:13;28.62;;;9.48;;
41305;SDS011;27051;50.376;19.152;2022-11-03T10:01:49;20.32;;;8.73;;
41305;SDS011;27051;50.376;19.152;2022-11-03T10:04:19;22.45;;;8.60;;
41305;SDS011;27051;50.376;19.152;2022-11-03T10:06:50;20.80;;;8.35;;
41305;SDS011;27051;50.376;19.152;2022-11-03T10:09:17;19.27;;;8.90;;
41305;SDS011;27051;50.376;19.152;2022-11-03T10:11:56;21.12;;;8.83;;
41305;SDS011;27051;50.376;19.152;2022-11-03T10:14:23;19.02;;;7.65;;
41305;SDS011;27051;50.376;19.152;2022-11-03T10:16:51;17.90;;;7.47;;
41305;SDS011;27051;50.376;19.152;2022-11-03T10:19:23;17.55;;;7.20;;
41305;SDS011;27051;50.376;19.152;2022-11-03T10:21:50;18.02;;;7.25;;
41305;SDS011;27051;50.376;19.152;2022-11-03T10:24:17;18.23;;;8.18;;
41305;SDS011;27051;50.376;19.152;2022-11-03T10:26:45;30.57;;;9.43;;
41305;SDS011;27051;50.376;19.152;2022-11-03T10:29:21;19.65;;;7.67;;
41305;SDS011;27051;50.376;19.152;2022-11-03T10:31:54;17.40;;;7.67;;
41305;SDS011;27051;50.376;19.152;2022-11-03T10:39:54;20.30;;;9.05;;
41305;SDS011;27051;50.376;19.152;2022-11-03T10:42:26;19.52;;;8.10;;
41305;SDS011;27051;50.376;19.152;2022-11-03T10:45:15;17.55;;;8.68;;
41305;SDS011;27051;50.376;19.152;2022-11-03T10:47:58;14.15;;;7.85;;
41305;SDS011;27051;50.376;19.152;2022-11-03T10:50:27;16.85;;;7.65;;
41305;SDS011;27051;50.376;19.152;2022-11-03T10:52:54;20.92;;;8.10;;
41305;SDS011;27051;50.376;19.152;2022-11-03T10:55:22;15.83;;;7.67;;
41305;SDS011;27051;50.376;19.152;2022-11-03T10:57:50;19.23;;;7.75;;
41305;SDS011;27051;50.376;19.152;2022-11-03T11:00:18;16.57;;;8.03;;
41305;SDS011;27051;50.376;19.152;2022-11-03T11:02:46;17.27;;;7.67;;
41305;SDS011;27051;50.376;19.152;2022-11-03T11:05:15;18.73;;;7.85;;
41305;SDS011;27051;50.376;19.152;2022-11-03T11:07:45;15.88;;;7.20;;
41305;SDS011;27051;50.376;19.152;2022-11-03T11:10:18;16.52;;;6.33;;
41305;SDS011;27051;50.376;19.152;2022-11-03T11:13:05;16.90;;;8.50;;
41305;SDS011;27051;50.376;19.152;2022-11-03T11:21:48;10.43;;;4.37;;
41305;SDS011;27051;50.376;19.152;2022-11-03T11:23:46;11.65;;;5.17;;
41305;SDS011;27051;50.376;19.152;2022-11-03T11:31:44;10.25;;;4.10;;
41305;SDS011;27051;50.376;19.152;2022-11-03T11:42:15;9.68;;;4.12;;
41305;SDS011;27051;50.376;19.152;2022-11-03T11:44:47;9.05;;;3.83;;
41305;SDS011;27051;50.376;19.152;2022-11-03T11:47:25;6.83;;;3.60;;
41305;SDS011;27051;50.376;19.152;2022-11-03T11:52:52;8.15;;;3.95;;
41305;SDS011;27051;50.376;19.152;2022-11-03T11:55:29;10.30;;;4.47;;
41305;SDS011;27051;50.376;19.152;2022-11-03T11:57:59;8.90;;;4.25;;
41305;SDS011;27051;50.376;19.152;2022-11-03T12:00:29;8.15;;;4.15;;
41305;SDS011;27051;50.376;19.152;2022-11-03T12:03:00;7.03;;;3.67;;
41305;SDS011;27051;50.376;19.152;2022-11-03T12:05:32;5.07;;;2.97;;
41305;SDS011;27051;50.376;19.152;2022-11-03T12:08:00;6.97;;;4.00;;
41305;SDS011;27051;50.376;19.152;2022-11-03T12:10:28;7.90;;;3.90;;
41305;SDS011;27051;50.376;19.152;2022-11-03T12:12:57;5.80;;;3.50;;
41305;SDS011;27051;50.376;19.152;2022-11-03T12:18:35;6.20;;;2.80;;
41305;SDS011;27051;50.376;19.152;2022-11-03T12:21:08;5.62;;;3.25;;
41305;SDS011;27051;50.376;19.152;2022-11-03T12:23:42;6.33;;;3.50;;
41305;SDS011;27051;50.376;19.152;2022-11-03T12:26:38;6.15;;;3.47;;
41305;SDS011;27051;50.376;19.152;2022-11-03T12:28:56;6.33;;;3.25;;
41305;SDS011;27051;50.376;19.152;2022-11-03T12:31:22;6.37;;;3.83;;
41305;SDS011;27051;50.376;19.152;2022-11-03T12:33:49;6.92;;;3.00;;
41305;SDS011;27051;50.376;19.152;2022-11-03T12:36:16;6.12;;;3.80;;
41305;SDS011;27051;50.376;19.152;2022-11-03T12:38:42;7.45;;;3.10;;
41305;SDS011;27051;50.376;19.152;2022-11-03T12:41:09;5.15;;;3.25;;
41305;SDS011;27051;50.376;19.152;2022-11-03T12:43:35;6.90;;;3.45;;
41305;SDS011;27051;50.376;19.152;2022-11-03T12:46:02;6.58;;;3.08;;
41305;SDS011;27051;50.376;19.152;2022-11-03T12:48:29;7.55;;;3.62;;
41305;SDS011;27051;50.376;19.152;2022-11-03T12:50:56;7.50;;;3.62;;
41305;SDS011;27051;50.376;19.152;2022-11-03T12:53:22;8.60;;;3.65;;
41305;SDS011;27051;50.376;19.152;2022-11-03T12:55:49;7.17;;;3.80;;
41305;SDS011;27051;50.376;19.152;2022-11-03T12:58:15;5.70;;;3.10;;
41305;SDS011;27051;50.376;19.152;2022-11-03T13:00:42;8.55;;;3.42;;
41305;SDS011;27051;50.376;19.152;2022-11-03T13:03:09;9.83;;;4.85;;
41305;SDS011;27051;50.376;19.152;2022-11-03T13:05:35;7.40;;;4.08;;
41305;SDS011;27051;50.376;19.152;2022-11-03T13:08:02;8.68;;;4.12;;
41305;SDS011;27051;50.376;19.152;2022-11-03T13:10:29;9.38;;;4.05;;
41305;SDS011;27051;50.376;19.152;2022-11-03T13:12:56;8.05;;;3.75;;
41305;SDS011;27051;50.376;19.152;2022-11-03T13:15:22;7.15;;;3.67;;
41305;SDS011;27051;50.376;19.152;2022-11-03T13:17:49;7.37;;;4.00;;
41305;SDS011;27051;50.376;19.152;2022-11-03T13:20:16;7.78;;;3.40;;
41305;SDS011;27051;50.376;19.152;2022-11-03T13:22:42;7.70;;;3.58;;
41305;SDS011;27051;50.376;19.152;2022-11-03T13:25:09;4.87;;;2.90;;
41305;SDS011;27051;50.376;19.152;2022-11-03T13:27:35;5.42;;;3.00;;
41305;SDS011;27051;50.376;19.152;2022-11-03T13:30:03;6.40;;;3.33;;
41305;SDS011;27051;50.376;19.152;2022-11-03T13:32:31;5.45;;;3.20;;
41305;SDS011;27051;50.376;19.152;2022-11-03T13:34:58;9.73;;;3.77;;
41305;SDS011;27051;50.376;19.152;2022-11-03T13:37:25;10.60;;;3.77;;
41305;SDS011;27051;50.376;19.152;2022-11-03T13:39:52;6.70;;;3.70;;
41305;SDS011;27051;50.376;19.152;2022-11-03T13:42:18;8.13;;;3.70;;
41305;SDS011;27051;50.376;19.152;2022-11-03T13:44:45;7.40;;;4.05;;
41305;SDS011;27051;50.376;19.152;2022-11-03T13:47:11;6.45;;;3.70;;
41305;SDS011;27051;50.376;19.152;2022-11-03T13:49:41;10.55;;;4.20;;
41305;SDS011;27051;50.376;19.152;2022-11-03T13:52:08;7.80;;;3.75;;
41305;SDS011;27051;50.376;19.152;2022-11-03T13:54:35;7.00;;;4.22;;
41305;SDS011;27051;50.376;19.152;2022-11-03T13:57:01;14.00;;;4.92;;
41305;SDS011;27051;50.376;19.152;2022-11-03T13:59:28;15.60;;;6.40;;
41305;SDS011;27051;50.376;19.152;2022-11-03T14:01:55;14.93;;;5.75;;
41305;SDS011;27051;50.376;19.152;2022-11-03T14:04:22;10.30;;;5.45;;
41305;SDS011;27051;50.376;19.152;2022-11-03T14:06:48;14.43;;;6.08;;
41305;SDS011;27051;50.376;19.152;2022-11-03T14:09:15;9.75;;;4.70;;
41305;SDS011;27051;50.376;19.152;2022-11-03T14:11:41;10.08;;;4.70;;
41305;SDS011;27051;50.376;19.152;2022-11-03T14:14:08;11.35;;;4.78;;
41305;SDS011;27051;50.376;19.152;2022-11-03T14:16:35;14.43;;;4.97;;
41305;SDS011;27051;50.376;19.152;2022-11-03T14:19:02;13.93;;;6.45;;
41305;SDS011;27051;50.376;19.152;2022-11-03T14:23:59;13.53;;;6.58;;
41305;SDS011;27051;50.376;19.152;2022-11-03T14:26:26;25.27;;;11.88;;
41305;SDS011;27051;50.376;19.152;2022-11-03T14:28:52;15.58;;;5.65;;
41305;SDS011;27051;50.376;19.152;2022-11-03T14:31:19;19.25;;;6.30;;
41305;SDS011;27051;50.376;19.152;2022-11-03T14:33:45;14.55;;;6.47;;
41305;SDS011;27051;50.376;19.152;2022-11-03T14:36:12;17.65;;;6.55;;
41305;SDS011;27051;50.376;19.152;2022-11-03T14:38:39;14.23;;;5.80;;
41305;SDS011;27051;50.376;19.152;2022-11-03T14:41:05;17.60;;;6.70;;
41305;SDS011;27051;50.376;19.152;2022-11-03T14:43:32;17.25;;;6.78;;
41305;SDS011;27051;50.376;19.152;2022-11-03T14:45:59;14.75;;;6.42;;
41305;SDS011;27051;50.376;19.152;2022-11-03T14:48:25;22.13;;;10.63;;
41305;SDS011;27051;50.376;19.152;2022-11-03T14:50:53;21.17;;;10.08;;
41305;SDS011;27051;50.376;19.152;2022-11-03T14:53:19;22.40;;;10.05;;
41305;SDS011;27051;50.376;19.152;2022-11-03T14:55:46;20.65;;;8.48;;
41305;SDS011;27051;50.376;19.152;2022-11-03T14:58:12;19.32;;;8.73;;
41305;SDS011;27051;50.376;19.152;2022-11-03T15:00:39;20.45;;;8.35;;
41305;SDS011;27051;50.376;19.152;2022-11-03T15:03:06;19.45;;;8.33;;
41305;SDS011;27051;50.376;19.152;2022-11-03T15:05:32;23.85;;;9.43;;
41305;SDS011;27051;50.376;19.152;2022-11-03T15:07:59;23.90;;;9.58;;
41305;SDS011;27051;50.376;19.152;2022-11-03T15:10:25;23.25;;;7.47;;
41305;SDS011;27051;50.376;19.152;2022-11-03T15:12:52;18.82;;;8.00;;
41305;SDS011;27051;50.376;19.152;2022-11-03T15:15:19;19.20;;;7.30;;
41305;SDS011;27051;50.376;19.152;2022-11-03T15:17:45;19.45;;;7.42;;
41305;SDS011;27051;50.376;19.152;2022-11-03T15:20:12;20.88;;;7.90;;
41305;SDS011;27051;50.376;19.152;2022-11-03T15:22:39;20.60;;;7.28;;
41305;SDS011;27051;50.376;19.152;2022-11-03T15:25:05;20.72;;;7.08;;
41305;SDS011;27051;50.376;19.152;2022-11-03T15:27:33;21.85;;;6.97;;
41305;SDS011;27051;50.376;19.152;2022-11-03T15:30:00;18.30;;;7.72;;
41305;SDS011;27051;50.376;19.152;2022-11-03T15:32:26;140.50;;;88.80;;
41305;SDS011;27051;50.376;19.152;2022-11-03T15:34:53;35.05;;;17.25;;
41305;SDS011;27051;50.376;19.152;2022-11-03T15:37:20;21.75;;;8.70;;
41305;SDS011;27051;50.376;19.152;2022-11-03T15:39:46;21.55;;;7.85;;
41305;SDS011;27051;50.376;19.152;2022-11-03T15:42:13;19.77;;;6.72;;
41305;SDS011;27051;50.376;19.152;2022-11-03T15:44:39;13.95;;;6.05;;
41305;SDS011;27051;50.376;19.152;2022-11-03T15:47:06;18.90;;;7.22;;
41305;SDS011;27051;50.376;19.152;2022-11-03T15:49:33;16.05;;;6.30;;
41305;SDS011;27051;50.376;19.152;2022-11-03T15:51:59;61.00;;;39.25;;